sensor_id;sensor_type;location;lat;lon;timestamp;P1;durP1;ratioP1;P2;durP2;ratioP2
61383;SDS011;47254;49.346;8.798;2022-07-21T00:00:39;28.83;;;20.85;;
61383;SDS011;47254;49.346;8.798;2022-07-21T00:03:07;29.77;;;20.43;;
61383;SDS011;47254;49.346;8.798;2022-07-21T00:05:32;27.83;;;22.05;;
61383;SDS011;47254;49.346;8.798;2022-07-21T00:08:00;31.38;;;23.27;;
61383;SDS011;47254;49.346;8.798;2022-07-21T00:10:25;31.52;;;22.77;;
61383;SDS011;47254;49.346;8.798;2022-07-21T00:12:54;33.90;;;22.63;;
61383;SDS011;47254;49.346;8.798;2022-07-21T00:15:19;35.00;;;24.77;;
61383;SDS011;47254;49.346;8.798;2022-07-21T00:17:47;34.35;;;24.33;;
61383;SDS011;47254;49.346;8.798;2022-07-21T00:20:13;33.80;;;23.40;;
61383;SDS011;47254;49.346;8.798;2022-07-21T00:22:41;32.72;;;22.08;;
61383;SDS011;47254;49.346;8.798;2022-07-21T00:25:07;31.85;;;24.80;;
61383;SDS011;47254;49.346;8.798;2022-07-21T00:27:32;34.00;;;24.48;;
61383;SDS011;47254;49.346;8.798;2022-07-21T00:29:57;36.92;;;24.30;;
61383;SDS011;47254;49.346;8.798;2022-07-21T00:32:22;27.90;;;23.20;;
61383;SDS011;47254;49.346;8.798;2022-07-21T00:34:48;34.83;;;24.23;;
61383;SDS011;47254;49.346;8.798;2022-07-21T00:37:13;33.00;;;23.53;;
61383;SDS011;47254;49.346;8.798;2022-07-21T00:39:38;27.50;;;22.43;;
61383;SDS011;47254;49.346;8.798;2022-07-21T00:42:03;29.43;;;23.37;;
61383;SDS011;47254;49.346;8.798;2022-07-21T00:44:29;30.85;;;22.50;;
61383;SDS011;47254;49.346;8.798;2022-07-21T00:46:54;31.88;;;23.10;;
61383;SDS011;47254;49.346;8.798;2022-07-21T00:49:20;27.27;;;24.25;;
61383;SDS011;47254;49.346;8.798;2022-07-21T00:51:46;31.58;;;23.20;;
61383;SDS011;47254;49.346;8.798;2022-07-21T00:54:12;34.45;;;24.05;;
61383;SDS011;47254;49.346;8.798;2022-07-21T00:56:37;32.60;;;24.20;;
61383;SDS011;47254;49.346;8.798;2022-07-21T00:59:05;40.63;;;23.83;;
61383;SDS011;47254;49.346;8.798;2022-07-21T01:01:30;29.67;;;23.55;;
61383;SDS011;47254;49.346;8.798;2022-07-21T01:03:58;34.13;;;25.33;;
61383;SDS011;47254;49.346;8.798;2022-07-21T01:06:28;36.03;;;25.25;;
61383;SDS011;47254;49.346;8.798;2022-07-21T01:08:53;39.17;;;27.05;;
61383;SDS011;47254;49.346;8.798;2022-07-21T01:11:24;42.33;;;26.60;;
61383;SDS011;47254;49.346;8.798;2022-07-21T01:13:49;32.22;;;24.83;;
61383;SDS011;47254;49.346;8.798;2022-07-21T01:16:14;39.10;;;28.70;;
61383;SDS011;47254;49.346;8.798;2022-07-21T01:18:42;40.58;;;29.45;;
61383;SDS011;47254;49.346;8.798;2022-07-21T01:21:26;47.07;;;31.97;;
61383;SDS011;47254;49.346;8.798;2022-07-21T01:23:52;44.38;;;31.52;;
61383;SDS011;47254;49.346;8.798;2022-07-21T01:26:17;47.13;;;32.13;;
61383;SDS011;47254;49.346;8.798;2022-07-21T01:28:45;53.88;;;34.17;;
61383;SDS011;47254;49.346;8.798;2022-07-21T01:31:10;46.63;;;34.25;;
61383;SDS011;47254;49.346;8.798;2022-07-21T01:33:36;46.15;;;34.85;;
61383;SDS011;47254;49.346;8.798;2022-07-21T01:36:01;44.13;;;33.97;;
61383;SDS011;47254;49.346;8.798;2022-07-21T01:38:28;51.63;;;35.70;;
61383;SDS011;47254;49.346;8.798;2022-07-21T01:41:15;55.63;;;35.47;;
61383;SDS011;47254;49.346;8.798;2022-07-21T01:43:59;43.92;;;34.13;;
61383;SDS011;47254;49.346;8.798;2022-07-21T01:46:25;52.17;;;33.45;;
61383;SDS011;47254;49.346;8.798;2022-07-21T01:48:50;47.95;;;34.53;;
61383;SDS011;47254;49.346;8.798;2022-07-21T01:51:16;47.07;;;34.53;;
61383;SDS011;47254;49.346;8.798;2022-07-21T01:53:43;49.53;;;35.93;;
61383;SDS011;47254;49.346;8.798;2022-07-21T01:56:08;53.60;;;35.53;;
61383;SDS011;47254;49.346;8.798;2022-07-21T01:58:38;51.80;;;34.50;;
61383;SDS011;47254;49.346;8.798;2022-07-21T02:01:04;49.53;;;34.35;;
61383;SDS011;47254;49.346;8.798;2022-07-21T02:03:29;47.65;;;33.67;;
61383;SDS011;47254;49.346;8.798;2022-07-21T02:06:04;48.10;;;35.73;;
61383;SDS011;47254;49.346;8.798;2022-07-21T02:08:32;55.47;;;35.42;;
61383;SDS011;47254;49.346;8.798;2022-07-21T02:11:00;48.70;;;33.15;;
61383;SDS011;47254;49.346;8.798;2022-07-21T02:13:26;47.25;;;33.08;;
61383;SDS011;47254;49.346;8.798;2022-07-21T02:15:52;47.00;;;33.40;;
61383;SDS011;47254;49.346;8.798;2022-07-21T02:18:17;48.25;;;33.63;;
61383;SDS011;47254;49.346;8.798;2022-07-21T02:20:45;45.53;;;32.75;;
61383;SDS011;47254;49.346;8.798;2022-07-21T02:23:12;44.10;;;32.95;;
61383;SDS011;47254;49.346;8.798;2022-07-21T02:25:37;41.92;;;32.55;;
61383;SDS011;47254;49.346;8.798;2022-07-21T02:28:02;43.63;;;32.07;;
61383;SDS011;47254;49.346;8.798;2022-07-21T02:30:28;44.80;;;29.95;;
61383;SDS011;47254;49.346;8.798;2022-07-21T02:32:55;42.77;;;31.53;;
61383;SDS011;47254;49.346;8.798;2022-07-21T02:35:23;47.10;;;32.50;;
61383;SDS011;47254;49.346;8.798;2022-07-21T02:37:48;50.60;;;31.88;;
61383;SDS011;47254;49.346;8.798;2022-07-21T02:40:13;43.03;;;31.70;;
61383;SDS011;47254;49.346;8.798;2022-07-21T02:42:38;46.70;;;32.03;;
61383;SDS011;47254;49.346;8.798;2022-07-21T02:45:09;44.88;;;30.90;;
61383;SDS011;47254;49.346;8.798;2022-07-21T02:47:47;43.70;;;31.40;;
61383;SDS011;47254;49.346;8.798;2022-07-21T02:50:13;41.33;;;30.60;;
61383;SDS011;47254;49.346;8.798;2022-07-21T02:52:38;38.03;;;29.50;;
61383;SDS011;47254;49.346;8.798;2022-07-21T02:55:04;36.42;;;28.60;;
61383;SDS011;47254;49.346;8.798;2022-07-21T02:57:29;36.95;;;29.27;;
61383;SDS011;47254;49.346;8.798;2022-07-21T02:59:55;38.03;;;28.87;;
61383;SDS011;47254;49.346;8.798;2022-07-21T03:02:20;45.40;;;28.13;;
61383;SDS011;47254;49.346;8.798;2022-07-21T03:04:47;39.10;;;27.55;;
61383;SDS011;47254;49.346;8.798;2022-07-21T03:07:12;38.57;;;26.93;;
61383;SDS011;47254;49.346;8.798;2022-07-21T03:09:38;40.27;;;29.60;;
61383;SDS011;47254;49.346;8.798;2022-07-21T03:12:03;38.90;;;28.07;;
61383;SDS011;47254;49.346;8.798;2022-07-21T03:14:30;37.92;;;28.02;;
61383;SDS011;47254;49.346;8.798;2022-07-21T03:16:55;39.53;;;28.37;;
61383;SDS011;47254;49.346;8.798;2022-07-21T03:19:25;42.47;;;27.48;;
61383;SDS011;47254;49.346;8.798;2022-07-21T03:21:50;41.72;;;28.33;;
61383;SDS011;47254;49.346;8.798;2022-07-21T03:24:15;37.57;;;26.90;;
61383;SDS011;47254;49.346;8.798;2022-07-21T03:26:41;35.47;;;26.00;;
61383;SDS011;47254;49.346;8.798;2022-07-21T03:29:06;42.65;;;29.23;;
61383;SDS011;47254;49.346;8.798;2022-07-21T03:31:31;38.87;;;27.33;;
61383;SDS011;47254;49.346;8.798;2022-07-21T03:33:56;41.27;;;27.37;;
61383;SDS011;47254;49.346;8.798;2022-07-21T03:36:26;34.22;;;26.40;;
61383;SDS011;47254;49.346;8.798;2022-07-21T03:38:51;32.33;;;24.92;;
61383;SDS011;47254;49.346;8.798;2022-07-21T03:41:18;34.22;;;25.95;;
61383;SDS011;47254;49.346;8.798;2022-07-21T03:43:44;36.80;;;26.77;;
61383;SDS011;47254;49.346;8.798;2022-07-21T03:46:09;33.00;;;26.50;;
61383;SDS011;47254;49.346;8.798;2022-07-21T03:48:34;35.33;;;26.03;;
61383;SDS011;47254;49.346;8.798;2022-07-21T03:51:02;34.50;;;25.60;;
61383;SDS011;47254;49.346;8.798;2022-07-21T03:53:27;39.63;;;27.05;;
61383;SDS011;47254;49.346;8.798;2022-07-21T03:55:52;34.00;;;25.77;;
61383;SDS011;47254;49.346;8.798;2022-07-21T03:58:20;36.83;;;26.83;;
61383;SDS011;47254;49.346;8.798;2022-07-21T04:00:45;38.78;;;27.55;;
61383;SDS011;47254;49.346;8.798;2022-07-21T04:03:12;34.58;;;24.30;;
61383;SDS011;47254;49.346;8.798;2022-07-21T04:05:40;30.88;;;26.63;;
61383;SDS011;47254;49.346;8.798;2022-07-21T04:08:08;39.05;;;25.42;;
61383;SDS011;47254;49.346;8.798;2022-07-21T04:10:37;34.10;;;24.48;;
61383;SDS011;47254;49.346;8.798;2022-07-21T04:13:03;32.63;;;23.85;;
61383;SDS011;47254;49.346;8.798;2022-07-21T04:15:29;33.95;;;24.75;;
61383;SDS011;47254;49.346;8.798;2022-07-21T04:17:54;30.95;;;24.95;;
61383;SDS011;47254;49.346;8.798;2022-07-21T04:20:20;33.53;;;24.93;;
61383;SDS011;47254;49.346;8.798;2022-07-21T04:22:45;28.70;;;23.60;;
61383;SDS011;47254;49.346;8.798;2022-07-21T04:25:14;36.20;;;25.65;;
61383;SDS011;47254;49.346;8.798;2022-07-21T04:27:41;32.83;;;24.27;;
61383;SDS011;47254;49.346;8.798;2022-07-21T04:30:08;35.77;;;25.30;;
61383;SDS011;47254;49.346;8.798;2022-07-21T04:32:36;33.20;;;24.52;;
61383;SDS011;47254;49.346;8.798;2022-07-21T04:35:01;30.85;;;24.48;;
61383;SDS011;47254;49.346;8.798;2022-07-21T04:37:27;35.50;;;24.63;;
61383;SDS011;47254;49.346;8.798;2022-07-21T04:39:54;29.45;;;24.20;;
61383;SDS011;47254;49.346;8.798;2022-07-21T04:42:22;34.10;;;23.98;;
61383;SDS011;47254;49.346;8.798;2022-07-21T04:44:47;28.93;;;23.53;;
61383;SDS011;47254;49.346;8.798;2022-07-21T04:47:12;33.92;;;24.10;;
61383;SDS011;47254;49.346;8.798;2022-07-21T04:49:39;32.03;;;22.50;;
61383;SDS011;47254;49.346;8.798;2022-07-21T04:52:05;29.67;;;23.80;;
61383;SDS011;47254;49.346;8.798;2022-07-21T04:54:32;30.73;;;23.35;;
61383;SDS011;47254;49.346;8.798;2022-07-21T04:56:58;36.40;;;24.95;;
61383;SDS011;47254;49.346;8.798;2022-07-21T04:59:27;29.02;;;22.65;;
61383;SDS011;47254;49.346;8.798;2022-07-21T05:01:52;29.25;;;23.55;;
61383;SDS011;47254;49.346;8.798;2022-07-21T05:04:18;28.13;;;21.57;;
61383;SDS011;47254;49.346;8.798;2022-07-21T05:06:43;33.30;;;25.13;;
61383;SDS011;47254;49.346;8.798;2022-07-21T05:09:08;36.83;;;26.13;;
61383;SDS011;47254;49.346;8.798;2022-07-21T05:11:34;36.22;;;23.02;;
61383;SDS011;47254;49.346;8.798;2022-07-21T05:14:02;33.63;;;23.83;;
61383;SDS011;47254;49.346;8.798;2022-07-21T05:16:27;27.27;;;23.23;;
61383;SDS011;47254;49.346;8.798;2022-07-21T05:18:52;30.17;;;22.70;;
61383;SDS011;47254;49.346;8.798;2022-07-21T05:21:20;34.97;;;21.50;;
61383;SDS011;47254;49.346;8.798;2022-07-21T05:23:45;33.53;;;22.02;;
61383;SDS011;47254;49.346;8.798;2022-07-21T05:26:10;27.23;;;22.60;;
61383;SDS011;47254;49.346;8.798;2022-07-21T05:28:37;28.80;;;21.55;;
61383;SDS011;47254;49.346;8.798;2022-07-21T05:31:02;31.33;;;21.70;;
61383;SDS011;47254;49.346;8.798;2022-07-21T05:33:27;31.47;;;22.10;;
61383;SDS011;47254;49.346;8.798;2022-07-21T05:35:55;29.33;;;23.63;;
61383;SDS011;47254;49.346;8.798;2022-07-21T05:38:25;30.27;;;21.13;;
61383;SDS011;47254;49.346;8.798;2022-07-21T05:40:50;29.20;;;21.42;;
61383;SDS011;47254;49.346;8.798;2022-07-21T05:43:15;27.13;;;20.20;;
61383;SDS011;47254;49.346;8.798;2022-07-21T05:45:40;23.03;;;19.50;;
61383;SDS011;47254;49.346;8.798;2022-07-21T05:48:05;22.93;;;19.60;;
61383;SDS011;47254;49.346;8.798;2022-07-21T05:50:31;23.02;;;17.65;;
61383;SDS011;47254;49.346;8.798;2022-07-21T05:52:56;21.65;;;18.40;;
61383;SDS011;47254;49.346;8.798;2022-07-21T05:55:24;25.17;;;18.02;;
61383;SDS011;47254;49.346;8.798;2022-07-21T05:57:49;26.27;;;17.95;;
61383;SDS011;47254;49.346;8.798;2022-07-21T06:00:15;29.63;;;17.93;;
61383;SDS011;47254;49.346;8.798;2022-07-21T06:02:41;23.85;;;18.33;;
61383;SDS011;47254;49.346;8.798;2022-07-21T06:05:06;21.63;;;15.67;;
61383;SDS011;47254;49.346;8.798;2022-07-21T06:07:35;22.17;;;16.83;;
61383;SDS011;47254;49.346;8.798;2022-07-21T06:10:01;21.73;;;16.63;;
61383;SDS011;47254;49.346;8.798;2022-07-21T06:12:26;25.93;;;15.67;;
61383;SDS011;47254;49.346;8.798;2022-07-21T06:14:54;24.13;;;16.42;;
61383;SDS011;47254;49.346;8.798;2022-07-21T06:17:20;22.08;;;14.68;;
61383;SDS011;47254;49.346;8.798;2022-07-21T06:19:47;17.17;;;14.20;;
61383;SDS011;47254;49.346;8.798;2022-07-21T06:22:12;18.50;;;14.00;;
61383;SDS011;47254;49.346;8.798;2022-07-21T06:24:38;14.27;;;12.73;;
61383;SDS011;47254;49.346;8.798;2022-07-21T06:27:03;17.85;;;13.43;;
61383;SDS011;47254;49.346;8.798;2022-07-21T06:29:28;16.65;;;13.82;;
61383;SDS011;47254;49.346;8.798;2022-07-21T06:31:56;21.08;;;13.10;;
61383;SDS011;47254;49.346;8.798;2022-07-21T06:34:21;21.85;;;13.30;;
61383;SDS011;47254;49.346;8.798;2022-07-21T06:36:49;16.60;;;13.60;;
61383;SDS011;47254;49.346;8.798;2022-07-21T06:39:14;14.32;;;12.82;;
61383;SDS011;47254;49.346;8.798;2022-07-21T06:41:40;14.37;;;12.00;;
61383;SDS011;47254;49.346;8.798;2022-07-21T06:44:05;18.80;;;11.40;;
61383;SDS011;47254;49.346;8.798;2022-07-21T06:46:31;15.60;;;11.38;;
61383;SDS011;47254;49.346;8.798;2022-07-21T06:48:59;16.90;;;12.05;;
61383;SDS011;47254;49.346;8.798;2022-07-21T06:51:26;18.83;;;12.65;;
61383;SDS011;47254;49.346;8.798;2022-07-21T06:53:52;16.40;;;11.90;;
61383;SDS011;47254;49.346;8.798;2022-07-21T06:56:17;19.35;;;11.98;;
61383;SDS011;47254;49.346;8.798;2022-07-21T06:58:45;13.77;;;10.55;;
61383;SDS011;47254;49.346;8.798;2022-07-21T07:01:13;13.95;;;10.68;;
61383;SDS011;47254;49.346;8.798;2022-07-21T07:03:44;16.85;;;11.23;;
61383;SDS011;47254;49.346;8.798;2022-07-21T07:06:09;13.43;;;10.27;;
61383;SDS011;47254;49.346;8.798;2022-07-21T07:08:34;13.82;;;10.52;;
61383;SDS011;47254;49.346;8.798;2022-07-21T07:11:03;17.52;;;12.02;;
61383;SDS011;47254;49.346;8.798;2022-07-21T07:13:29;18.13;;;12.68;;
61383;SDS011;47254;49.346;8.798;2022-07-21T07:15:58;17.58;;;11.25;;
61383;SDS011;47254;49.346;8.798;2022-07-21T07:18:26;14.68;;;10.93;;
61383;SDS011;47254;49.346;8.798;2022-07-21T07:20:54;15.07;;;10.23;;
61383;SDS011;47254;49.346;8.798;2022-07-21T07:23:19;14.73;;;10.40;;
61383;SDS011;47254;49.346;8.798;2022-07-21T07:25:44;13.53;;;10.23;;
61383;SDS011;47254;49.346;8.798;2022-07-21T07:28:09;14.47;;;9.63;;
61383;SDS011;47254;49.346;8.798;2022-07-21T07:30:35;14.90;;;9.68;;
61383;SDS011;47254;49.346;8.798;2022-07-21T07:33:04;21.63;;;10.02;;
61383;SDS011;47254;49.346;8.798;2022-07-21T07:35:31;15.25;;;9.80;;
61383;SDS011;47254;49.346;8.798;2022-07-21T07:37:56;19.47;;;10.13;;
61383;SDS011;47254;49.346;8.798;2022-07-21T07:40:22;15.30;;;9.77;;
61383;SDS011;47254;49.346;8.798;2022-07-21T07:42:48;15.85;;;10.23;;
61383;SDS011;47254;49.346;8.798;2022-07-21T07:45:16;13.30;;;9.82;;
61383;SDS011;47254;49.346;8.798;2022-07-21T07:47:42;10.73;;;9.30;;
61383;SDS011;47254;49.346;8.798;2022-07-21T07:50:10;14.75;;;9.80;;
61383;SDS011;47254;49.346;8.798;2022-07-21T07:52:36;12.30;;;9.20;;
61383;SDS011;47254;49.346;8.798;2022-07-21T07:55:01;18.70;;;9.25;;
61383;SDS011;47254;49.346;8.798;2022-07-21T07:57:31;12.98;;;9.90;;
61383;SDS011;47254;49.346;8.798;2022-07-21T08:00:02;15.82;;;10.65;;
61383;SDS011;47254;49.346;8.798;2022-07-21T08:02:27;14.68;;;9.98;;
61383;SDS011;47254;49.346;8.798;2022-07-21T08:04:55;15.50;;;11.40;;
61383;SDS011;47254;49.346;8.798;2022-07-21T08:07:20;17.20;;;10.20;;
61383;SDS011;47254;49.346;8.798;2022-07-21T08:09:47;11.15;;;10.05;;
61383;SDS011;47254;49.346;8.798;2022-07-21T08:12:15;13.57;;;10.27;;
61383;SDS011;47254;49.346;8.798;2022-07-21T08:14:42;11.85;;;8.93;;
61383;SDS011;47254;49.346;8.798;2022-07-21T08:17:07;12.63;;;9.07;;
61383;SDS011;47254;49.346;8.798;2022-07-21T08:19:33;14.63;;;9.80;;
61383;SDS011;47254;49.346;8.798;2022-07-21T08:21:58;18.43;;;8.90;;
61383;SDS011;47254;49.346;8.798;2022-07-21T08:24:28;11.73;;;8.18;;
61383;SDS011;47254;49.346;8.798;2022-07-21T08:26:58;16.42;;;9.13;;
61383;SDS011;47254;49.346;8.798;2022-07-21T08:29:23;10.45;;;8.48;;
61383;SDS011;47254;49.346;8.798;2022-07-21T08:31:48;12.77;;;7.37;;
61383;SDS011;47254;49.346;8.798;2022-07-21T08:34:14;11.70;;;7.30;;
61383;SDS011;47254;49.346;8.798;2022-07-21T08:36:39;11.57;;;7.63;;
61383;SDS011;47254;49.346;8.798;2022-07-21T08:39:04;11.57;;;7.65;;
61383;SDS011;47254;49.346;8.798;2022-07-21T08:41:31;10.27;;;7.67;;
61383;SDS011;47254;49.346;8.798;2022-07-21T08:43:56;13.90;;;8.50;;
61383;SDS011;47254;49.346;8.798;2022-07-21T08:46:22;10.00;;;7.90;;
61383;SDS011;47254;49.346;8.798;2022-07-21T08:48:47;12.07;;;7.20;;
61383;SDS011;47254;49.346;8.798;2022-07-21T08:51:13;11.02;;;6.78;;
61383;SDS011;47254;49.346;8.798;2022-07-21T08:53:43;11.60;;;7.65;;
61383;SDS011;47254;49.346;8.798;2022-07-21T08:56:11;12.88;;;7.18;;
61383;SDS011;47254;49.346;8.798;2022-07-21T08:58:36;10.90;;;7.80;;
61383;SDS011;47254;49.346;8.798;2022-07-21T09:01:02;11.48;;;7.78;;
61383;SDS011;47254;49.346;8.798;2022-07-21T09:03:30;12.15;;;7.75;;
61383;SDS011;47254;49.346;8.798;2022-07-21T09:06:01;11.57;;;8.35;;
61383;SDS011;47254;49.346;8.798;2022-07-21T09:08:28;14.57;;;7.80;;
61383;SDS011;47254;49.346;8.798;2022-07-21T09:10:56;18.58;;;8.25;;
61383;SDS011;47254;49.346;8.798;2022-07-21T09:13:33;13.27;;;8.10;;
61383;SDS011;47254;49.346;8.798;2022-07-21T09:15:59;11.50;;;6.77;;
61383;SDS011;47254;49.346;8.798;2022-07-21T09:18:29;9.82;;;7.53;;
61383;SDS011;47254;49.346;8.798;2022-07-21T09:20:54;9.68;;;7.97;;
61383;SDS011;47254;49.346;8.798;2022-07-21T09:23:23;11.93;;;8.43;;
61383;SDS011;47254;49.346;8.798;2022-07-21T09:25:54;10.68;;;8.88;;
61383;SDS011;47254;49.346;8.798;2022-07-21T09:28:27;8.88;;;7.32;;
61383;SDS011;47254;49.346;8.798;2022-07-21T09:35:57;10.05;;;7.47;;
61383;SDS011;47254;49.346;8.798;2022-07-21T09:38:25;11.38;;;7.22;;
61383;SDS011;47254;49.346;8.798;2022-07-21T09:40:51;11.70;;;8.18;;
61383;SDS011;47254;49.346;8.798;2022-07-21T09:43:33;11.55;;;7.88;;
61383;SDS011;47254;49.346;8.798;2022-07-21T09:46:04;9.63;;;8.00;;
61383;SDS011;47254;49.346;8.798;2022-07-21T09:48:36;9.30;;;7.68;;
61383;SDS011;47254;49.346;8.798;2022-07-21T09:56:17;16.95;;;9.15;;
61383;SDS011;47254;49.346;8.798;2022-07-21T09:58:43;12.15;;;8.93;;
61383;SDS011;47254;49.346;8.798;2022-07-21T10:01:10;12.55;;;9.95;;
61383;SDS011;47254;49.346;8.798;2022-07-21T10:03:35;13.23;;;9.47;;
61383;SDS011;47254;49.346;8.798;2022-07-21T10:06:02;13.55;;;8.20;;
61383;SDS011;47254;49.346;8.798;2022-07-21T10:08:30;14.60;;;9.20;;
61383;SDS011;47254;49.346;8.798;2022-07-21T10:10:56;13.50;;;8.77;;
61383;SDS011;47254;49.346;8.798;2022-07-21T10:13:24;11.43;;;8.40;;
61383;SDS011;47254;49.346;8.798;2022-07-21T10:15:49;16.65;;;7.85;;
61383;SDS011;47254;49.346;8.798;2022-07-21T10:18:15;9.73;;;6.68;;
61383;SDS011;47254;49.346;8.798;2022-07-21T10:20:41;11.68;;;7.47;;
61383;SDS011;47254;49.346;8.798;2022-07-21T10:25:51;10.70;;;6.32;;
61383;SDS011;47254;49.346;8.798;2022-07-21T10:28:18;7.25;;;6.15;;
61383;SDS011;47254;49.346;8.798;2022-07-21T10:30:44;9.93;;;5.93;;
61383;SDS011;47254;49.346;8.798;2022-07-21T10:33:13;12.23;;;6.82;;
61383;SDS011;47254;49.346;8.798;2022-07-21T10:35:42;10.40;;;5.63;;
61383;SDS011;47254;49.346;8.798;2022-07-21T10:41:11;10.35;;;6.57;;
61383;SDS011;47254;49.346;8.798;2022-07-21T10:43:53;8.63;;;6.43;;
61383;SDS011;47254;49.346;8.798;2022-07-21T10:46:31;12.65;;;6.20;;
61383;SDS011;47254;49.346;8.798;2022-07-21T10:48:59;9.65;;;6.88;;
61383;SDS011;47254;49.346;8.798;2022-07-21T10:51:25;7.50;;;6.25;;
61383;SDS011;47254;49.346;8.798;2022-07-21T10:56:39;12.23;;;6.07;;
61383;SDS011;47254;49.346;8.798;2022-07-21T10:59:04;13.50;;;6.73;;
61383;SDS011;47254;49.346;8.798;2022-07-21T11:01:29;10.50;;;5.97;;
61383;SDS011;47254;49.346;8.798;2022-07-21T11:04:08;9.57;;;6.17;;
61383;SDS011;47254;49.346;8.798;2022-07-21T11:06:36;9.15;;;6.85;;
61383;SDS011;47254;49.346;8.798;2022-07-21T11:11:27;15.03;;;6.20;;
61383;SDS011;47254;49.346;8.798;2022-07-21T11:19:33;11.13;;;6.50;;
61383;SDS011;47254;49.346;8.798;2022-07-21T11:24:41;7.50;;;5.82;;
61383;SDS011;47254;49.346;8.798;2022-07-21T11:29:36;10.20;;;6.40;;
61383;SDS011;47254;49.346;8.798;2022-07-21T11:32:02;9.88;;;5.97;;
61383;SDS011;47254;49.346;8.798;2022-07-21T11:39:55;8.68;;;5.93;;
61383;SDS011;47254;49.346;8.798;2022-07-21T11:42:20;9.07;;;6.57;;
61383;SDS011;47254;49.346;8.798;2022-07-21T11:44:45;6.67;;;5.47;;
61383;SDS011;47254;49.346;8.798;2022-07-21T11:47:12;7.37;;;4.80;;
61383;SDS011;47254;49.346;8.798;2022-07-21T11:49:37;8.55;;;5.32;;
61383;SDS011;47254;49.346;8.798;2022-07-21T11:52:14;7.78;;;5.07;;
61383;SDS011;47254;49.346;8.798;2022-07-21T11:54:43;14.30;;;5.78;;
61383;SDS011;47254;49.346;8.798;2022-07-21T11:57:09;7.18;;;4.97;;
61383;SDS011;47254;49.346;8.798;2022-07-21T11:59:35;8.80;;;5.50;;
61383;SDS011;47254;49.346;8.798;2022-07-21T12:02:02;8.90;;;5.07;;
61383;SDS011;47254;49.346;8.798;2022-07-21T12:04:33;5.40;;;4.82;;
61383;SDS011;47254;49.346;8.798;2022-07-21T12:06:59;6.47;;;5.03;;
61383;SDS011;47254;49.346;8.798;2022-07-21T12:09:27;6.55;;;4.78;;
61383;SDS011;47254;49.346;8.798;2022-07-21T12:11:52;8.18;;;5.22;;
61383;SDS011;47254;49.346;8.798;2022-07-21T12:14:17;7.22;;;4.97;;
61383;SDS011;47254;49.346;8.798;2022-07-21T12:16:50;6.18;;;4.90;;
61383;SDS011;47254;49.346;8.798;2022-07-21T12:19:16;15.65;;;5.28;;
61383;SDS011;47254;49.346;8.798;2022-07-21T12:21:49;7.50;;;5.20;;
61383;SDS011;47254;49.346;8.798;2022-07-21T12:24:15;5.95;;;4.57;;
61383;SDS011;47254;49.346;8.798;2022-07-21T12:26:41;7.38;;;5.45;;
61383;SDS011;47254;49.346;8.798;2022-07-21T12:29:06;7.63;;;4.70;;
61383;SDS011;47254;49.346;8.798;2022-07-21T12:31:34;8.15;;;4.88;;
61383;SDS011;47254;49.346;8.798;2022-07-21T12:34:09;5.15;;;4.53;;
61383;SDS011;47254;49.346;8.798;2022-07-21T12:36:36;6.50;;;4.75;;
61383;SDS011;47254;49.346;8.798;2022-07-21T12:39:21;6.03;;;5.40;;
61383;SDS011;47254;49.346;8.798;2022-07-21T12:42:06;8.20;;;5.10;;
61383;SDS011;47254;49.346;8.798;2022-07-21T12:44:32;6.95;;;4.80;;
61383;SDS011;47254;49.346;8.798;2022-07-21T12:47:11;9.23;;;4.68;;
61383;SDS011;47254;49.346;8.798;2022-07-21T12:52:20;8.95;;;4.88;;
61383;SDS011;47254;49.346;8.798;2022-07-21T12:54:45;8.88;;;4.95;;
61383;SDS011;47254;49.346;8.798;2022-07-21T12:57:13;13.98;;;5.22;;
61383;SDS011;47254;49.346;8.798;2022-07-21T12:59:38;7.40;;;5.17;;
61383;SDS011;47254;49.346;8.798;2022-07-21T13:02:03;4.73;;;4.27;;
61383;SDS011;47254;49.346;8.798;2022-07-21T13:04:31;9.77;;;4.82;;
61383;SDS011;47254;49.346;8.798;2022-07-21T13:06:56;6.50;;;4.95;;
61383;SDS011;47254;49.346;8.798;2022-07-21T13:09:21;9.13;;;5.20;;
61383;SDS011;47254;49.346;8.798;2022-07-21T13:11:46;6.07;;;5.33;;
61383;SDS011;47254;49.346;8.798;2022-07-21T13:14:16;8.45;;;5.25;;
61383;SDS011;47254;49.346;8.798;2022-07-21T13:16:41;18.38;;;4.85;;
61383;SDS011;47254;49.346;8.798;2022-07-21T13:19:06;8.80;;;4.60;;
61383;SDS011;47254;49.346;8.798;2022-07-21T13:21:32;7.37;;;5.13;;
61383;SDS011;47254;49.346;8.798;2022-07-21T13:23:59;8.73;;;5.43;;
61383;SDS011;47254;49.346;8.798;2022-07-21T13:26:25;8.32;;;5.47;;
61383;SDS011;47254;49.346;8.798;2022-07-21T13:28:50;7.33;;;4.83;;
61383;SDS011;47254;49.346;8.798;2022-07-21T13:31:15;6.93;;;4.80;;
61383;SDS011;47254;49.346;8.798;2022-07-21T13:33:45;9.27;;;4.90;;
61383;SDS011;47254;49.346;8.798;2022-07-21T13:36:10;6.60;;;4.90;;
61383;SDS011;47254;49.346;8.798;2022-07-21T13:38:35;14.68;;;5.57;;
61383;SDS011;47254;49.346;8.798;2022-07-21T13:41:03;6.88;;;4.88;;
61383;SDS011;47254;49.346;8.798;2022-07-21T13:43:28;9.20;;;5.05;;
61383;SDS011;47254;49.346;8.798;2022-07-21T13:45:53;6.93;;;4.90;;
61383;SDS011;47254;49.346;8.798;2022-07-21T13:48:19;6.23;;;4.87;;
61383;SDS011;47254;49.346;8.798;2022-07-21T13:50:44;5.17;;;4.67;;
61383;SDS011;47254;49.346;8.798;2022-07-21T13:53:09;7.97;;;4.67;;
61383;SDS011;47254;49.346;8.798;2022-07-21T13:55:37;7.75;;;5.28;;
61383;SDS011;47254;49.346;8.798;2022-07-21T13:58:02;7.23;;;5.13;;
61383;SDS011;47254;49.346;8.798;2022-07-21T14:00:27;7.70;;;5.28;;
61383;SDS011;47254;49.346;8.798;2022-07-21T14:02:53;8.73;;;4.75;;
61383;SDS011;47254;49.346;8.798;2022-07-21T14:05:18;9.50;;;5.20;;
61383;SDS011;47254;49.346;8.798;2022-07-21T14:07:43;8.60;;;5.10;;
61383;SDS011;47254;49.346;8.798;2022-07-21T14:10:13;6.28;;;5.03;;
61383;SDS011;47254;49.346;8.798;2022-07-21T14:12:38;6.20;;;4.55;;
61383;SDS011;47254;49.346;8.798;2022-07-21T14:15:05;7.93;;;4.47;;
61383;SDS011;47254;49.346;8.798;2022-07-21T14:17:31;7.25;;;4.82;;
61383;SDS011;47254;49.346;8.798;2022-07-21T14:19:58;5.72;;;4.78;;
61383;SDS011;47254;49.346;8.798;2022-07-21T14:22:23;6.00;;;4.90;;
61383;SDS011;47254;49.346;8.798;2022-07-21T14:24:49;5.50;;;4.90;;
61383;SDS011;47254;49.346;8.798;2022-07-21T14:27:33;6.40;;;4.20;;
61383;SDS011;47254;49.346;8.798;2022-07-21T14:29:58;8.80;;;4.57;;
61383;SDS011;47254;49.346;8.798;2022-07-21T14:32:26;9.13;;;4.55;;
61383;SDS011;47254;49.346;8.798;2022-07-21T14:34:55;5.55;;;4.47;;
61383;SDS011;47254;49.346;8.798;2022-07-21T14:37:22;7.95;;;4.57;;
61383;SDS011;47254;49.346;8.798;2022-07-21T14:39:48;7.45;;;4.60;;
61383;SDS011;47254;49.346;8.798;2022-07-21T14:42:14;7.35;;;4.72;;
61383;SDS011;47254;49.346;8.798;2022-07-21T14:44:39;7.07;;;5.07;;
61383;SDS011;47254;49.346;8.798;2022-07-21T14:47:05;7.40;;;4.53;;
61383;SDS011;47254;49.346;8.798;2022-07-21T14:49:31;6.38;;;4.80;;
61383;SDS011;47254;49.346;8.798;2022-07-21T14:51:59;6.63;;;5.32;;
61383;SDS011;47254;49.346;8.798;2022-07-21T14:54:26;5.40;;;4.70;;
61383;SDS011;47254;49.346;8.798;2022-07-21T14:56:51;6.05;;;4.70;;
61383;SDS011;47254;49.346;8.798;2022-07-21T14:59:17;6.32;;;3.97;;
61383;SDS011;47254;49.346;8.798;2022-07-21T15:01:42;6.23;;;4.47;;
61383;SDS011;47254;49.346;8.798;2022-07-21T15:04:07;7.05;;;4.72;;
61383;SDS011;47254;49.346;8.798;2022-07-21T15:06:33;6.00;;;4.30;;
61383;SDS011;47254;49.346;8.798;2022-07-21T15:08:58;7.07;;;4.90;;